Time;durP1;ratioP1;P1;durP2;ratioP2;P2;SDS_P1;SDS_P2;PMS_P1;PMS_P2;Temp;Humidity;BMP_temperature;BMP_pressure;BME280_temperature;BME280_humidity;BME280_pressure;Samples;Min_cycle;Max_cycle;Signal;HPM_P1;HPM_P2
2021/01/17 00:01:04;;;;;;;15.00;6.08;;;;;;;-6.30;84.19;96159.08;1708952;83;21139;-85
2021/01/17 00:03:31;;;;;;;14.27;6.80;;;;;;;-6.32;84.02;96163.62;1706089;83;21175;-85
2021/01/17 00:05:59;;;;;;;16.90;8.03;;;;;;;-6.36;83.92;96158.02;1711181;83;21134;-85
2021/01/17 00:08:26;;;;;;;12.13;6.00;;;;;;;-6.38;83.86;96160.48;1707052;84;21163;-85
2021/01/17 00:10:55;;;;;;;14.80;6.30;;;;;;;-6.42;83.75;96159.25;1712414;83;21245;-85
2021/01/17 00:13:23;;;;;;;15.10;6.80;;;;;;;-6.46;83.85;96153.67;1698191;84;21500;-85
2021/01/17 00:15:52;;;;;;;11.90;7.57;;;;;;;-6.46;83.99;96151.59;1696719;84;21201;-85
2021/01/17 00:18:19;;;;;;;16.70;7.53;;;;;;;-6.49;83.97;96154.50;1699141;83;21131;-85
2021/01/17 00:20:46;;;;;;;13.67;7.00;;;;;;;-6.50;83.95;96162.73;1701166;84;21132;-85
2021/01/17 00:23:13;;;;;;;13.80;6.77;;;;;;;-6.50;84.03;96151.63;1685191;84;21135;-85
2021/01/17 00:25:40;;;;;;;12.43;6.50;;;;;;;-6.50;83.98;96149.05;1688947;84;21164;-86
2021/01/17 00:28:07;;;;;;;9.43;5.63;;;;;;;-6.50;84.03;96158.06;1677032;84;21633;-86
2021/01/17 00:30:35;;;;;;;15.50;7.17;;;;;;;-6.47;84.19;96157.23;1684001;84;21311;-86
2021/01/17 00:33:03;;;;;;;16.07;7.70;;;;;;;-6.44;84.30;96149.12;1684814;84;21151;-85
2021/01/17 00:35:33;;;;;;;9.65;5.30;;;;;;;-6.41;84.38;96142.80;1682403;84;21187;-85
2021/01/17 00:38:03;;;;;;;12.30;6.20;;;;;;;-6.37;84.43;96150.47;1686288;84;21147;-85
2021/01/17 00:40:30;;;;;;;9.93;5.70;;;;;;;-6.34;84.44;96144.94;1683806;84;21317;-86
2021/01/17 00:42:59;;;;;;;12.10;7.33;;;;;;;-6.31;84.48;96160.06;1732329;81;21145;-85
2021/01/17 00:45:28;;;;;;;10.30;5.83;;;;;;;-6.26;84.67;96144.03;1733104;82;21104;-85
2021/01/17 00:47:56;;;;;;;10.53;6.73;;;;;;;-6.24;84.74;96144.64;1691791;84;21119;-86
2021/01/17 00:50:25;;;;;;;9.47;4.93;;;;;;;-6.21;85.03;96142.48;1685686;84;21143;-85
2021/01/17 00:52:55;;;;;;;9.53;5.72;;;;;;;-6.20;85.15;96141.50;1657089;85;21112;-86
2021/01/17 00:55:23;;;;;;;25.77;5.67;;;;;;;-6.20;85.22;96151.02;1706773;84;21159;-86
2021/01/17 00:57:50;;;;;;;7.40;3.73;;;;;;;-6.21;85.46;96141.19;1705801;84;21112;-86
2021/01/17 01:00:22;;;;;;;8.83;5.00;;;;;;;-6.24;85.73;96142.86;1682036;84;21169;-86
2021/01/17 01:02:49;;;;;;;12.70;6.57;;;;;;;-6.23;85.83;96140.58;1693366;84;21176;-85
2021/01/17 01:05:16;;;;;;;13.53;6.47;;;;;;;-6.27;86.07;96138.08;1675667;84;21153;-85
2021/01/17 01:07:43;;;;;;;16.02;6.87;;;;;;;-6.25;86.29;96132.23;1707931;84;21167;-85
2021/01/17 01:10:13;;;;;;;12.17;6.70;;;;;;;-6.25;86.36;96138.69;1708122;82;21528;-85
2021/01/17 01:12:40;;;;;;;10.97;6.97;;;;;;;-6.23;86.38;96133.34;1695983;83;21138;-85
2021/01/17 01:15:08;;;;;;;10.47;5.93;;;;;;;-6.25;86.29;96136.11;1714358;83;21131;-85
2021/01/17 01:17:36;;;;;;;5.50;3.63;;;;;;;-6.25;86.18;96123.70;1743441;81;21725;-85
2021/01/17 01:20:07;;;;;;;16.07;6.70;;;;;;;-6.29;86.09;96125.37;1754336;81;21252;-85
2021/01/17 01:22:34;;;;;;;10.17;5.83;;;;;;;-6.30;86.10;96122.97;1754872;81;21127;-85
2021/01/17 01:25:01;;;;;;;11.47;6.23;;;;;;;-6.34;86.07;96126.88;1713418;83;21133;-85
2021/01/17 01:27:29;;;;;;;10.68;6.45;;;;;;;-6.37;86.10;96119.52;1740647;81;21277;-85
2021/01/17 01:29:55;;;;;;;12.33;6.37;;;;;;;-6.40;86.22;96127.14;1757477;81;21092;-85
2021/01/17 01:32:22;;;;;;;11.43;5.93;;;;;;;-6.42;86.20;96126.53;1751972;81;21115;-86
2021/01/17 01:34:49;;;;;;;8.80;4.80;;;;;;;-6.45;86.21;96127.39;1747573;81;21264;-85
2021/01/17 01:37:16;;;;;;;11.97;6.93;;;;;;;-6.47;86.25;96120.34;1749192;81;21257;-85
2021/01/17 01:39:43;;;;;;;12.03;6.40;;;;;;;-6.52;86.35;96117.00;1738687;81;21192;-85
2021/01/17 01:42:10;;;;;;;11.40;5.80;;;;;;;-6.55;86.49;96119.95;1721094;83;21487;-85
2021/01/17 01:44:37;;;;;;;10.87;6.77;;;;;;;-6.59;86.48;96114.86;1722696;83;21163;-85
2021/01/17 01:47:05;;;;;;;11.27;5.23;;;;;;;-6.64;86.60;96121.84;1715897;83;21148;-85
2021/01/17 01:49:32;;;;;;;9.87;6.27;;;;;;;-6.68;86.76;96118.03;1730969;83;21575;-85
2021/01/17 01:52:03;;;;;;;10.77;6.23;;;;;;;-6.69;86.86;96116.94;1721590;83;21647;-85
2021/01/17 01:54:31;;;;;;;12.60;6.77;;;;;;;-6.71;87.19;96118.41;1711520;83;21120;-86
2021/01/17 01:56:58;;;;;;;10.03;5.77;;;;;;;-6.72;87.30;96116.02;1702413;84;21172;-85
2021/01/17 01:59:27;;;;;;;10.93;5.53;;;;;;;-6.69;87.46;96124.66;1701013;83;21147;-85
2021/01/17 02:01:56;;;;;;;9.60;5.83;;;;;;;-6.67;87.53;96129.14;1693881;84;21181;-85
2021/01/17 02:04:23;;;;;;;14.10;6.70;;;;;;;-6.71;87.47;96127.92;1728600;83;21157;-85
2021/01/17 02:07:08;;;;;;;10.00;6.07;;;;;;;-6.69;87.66;96131.11;1732043;83;21496;-85
2021/01/17 02:09:35;;;;;;;10.90;5.70;;;;;;;-6.67;87.66;96129.94;1713975;83;21515;-85
2021/01/17 02:12:20;;;;;;;7.33;4.10;;;;;;;-6.63;87.55;96126.01;1713487;82;21214;-85
2021/01/17 02:15:01;;;;;;;11.83;6.17;;;;;;;-6.63;87.48;96132.45;1726948;82;21100;-85
2021/01/17 02:17:32;;;;;;;12.60;5.57;;;;;;;-6.64;87.50;96130.86;1698577;83;21144;-85
2021/01/17 02:20:21;;;;;;;13.63;5.57;;;;;;;-6.63;87.37;96132.45;1693734;84;21112;-85
2021/01/17 02:23:15;;;;;;;11.53;5.30;;;;;;;-6.65;87.18;96135.70;1670250;85;21193;-83
2021/01/17 02:25:43;;;;;;;10.17;4.90;;;;;;;-6.64;87.34;96147.61;1680357;84;21298;-85
2021/01/17 02:28:16;;;;;;;9.33;4.73;;;;;;;-6.53;87.42;96149.41;1718459;82;21523;-84
2021/01/17 02:30:53;;;;;;;9.70;3.27;;;;;;;-6.42;87.46;96157.47;1697972;83;21147;-84
2021/01/17 02:33:33;;;;;;;7.13;3.77;;;;;;;-6.32;87.47;96159.27;1711720;82;21572;-85
2021/01/17 02:36:26;;;;;;;10.43;5.33;;;;;;;-6.25;87.07;96153.36;1704469;82;21606;-84
2021/01/17 02:39:23;;;;;;;8.23;4.73;;;;;;;-6.24;86.83;96162.20;1707692;83;21277;-85
2021/01/17 02:41:59;;;;;;;8.87;3.80;;;;;;;-6.25;86.75;96157.23;1716305;83;21572;-85
2021/01/17 02:44:29;;;;;;;11.37;5.60;;;;;;;-6.28;86.66;96159.69;1710714;82;21132;-85
2021/01/17 02:46:57;;;;;;;8.53;5.03;;;;;;;-6.31;86.76;96170.38;1710885;83;21294;-85
2021/01/17 02:49:25;;;;;;;6.53;3.53;;;;;;;-6.36;86.71;96170.11;1721204;81;21191;-85
2021/01/17 02:51:53;;;;;;;6.40;3.30;;;;;;;-6.36;86.76;96173.98;1706864;83;21119;-84
2021/01/17 02:54:42;;;;;;;5.67;3.40;;;;;;;-6.41;86.64;96177.61;1707968;83;21184;-84
2021/01/17 02:57:12;;;;;;;7.43;3.43;;;;;;;-6.43;86.63;96180.87;1720717;82;21119;-85
2021/01/17 03:00:06;;;;;;;7.60;3.20;;;;;;;-6.51;86.50;96180.97;1721973;82;21638;-85
2021/01/17 03:02:37;;;;;;;5.50;2.97;;;;;;;-6.61;86.29;96185.94;1716248;83;21199;-84
2021/01/17 03:05:07;;;;;;;4.97;3.23;;;;;;;-6.71;86.44;96182.84;1714459;82;21452;-85
2021/01/17 03:07:37;;;;;;;5.47;3.43;;;;;;;-6.75;86.96;96180.81;1709027;82;21159;-85
2021/01/17 03:10:08;;;;;;;3.42;2.20;;;;;;;-6.77;87.41;96186.12;1715004;83;21151;-85
2021/01/17 03:12:36;;;;;;;7.20;2.67;;;;;;;-6.79;87.31;96180.36;1709326;83;21572;-85
2021/01/17 03:15:07;;;;;;;5.03;2.70;;;;;;;-6.84;87.36;96187.04;1721170;83;21127;-85
2021/01/17 03:17:34;;;;;;;6.83;3.77;;;;;;;-6.86;87.57;96184.64;1750075;81;21506;-85
2021/01/17 03:20:01;;;;;;;7.83;3.90;;;;;;;-6.89;87.68;96194.83;1745264;81;21535;-85
2021/01/17 03:22:28;;;;;;;7.37;3.67;;;;;;;-6.90;87.83;96198.38;1755245;81;21123;-85
2021/01/17 03:24:55;;;;;;;6.97;3.50;;;;;;;-6.85;88.27;96207.34;1749781;81;21497;-85
2021/01/17 03:27:22;;;;;;;7.70;3.90;;;;;;;-6.79;88.50;96208.70;1750296;81;21504;-85
2021/01/17 03:29:49;;;;;;;7.07;4.03;;;;;;;-6.75;88.38;96221.56;1754232;80;21123;-85
2021/01/17 03:32:16;;;;;;;11.90;5.80;;;;;;;-6.82;87.99;96223.23;1762710;81;21471;-85
2021/01/17 03:34:48;;;;;;;12.63;5.30;;;;;;;-7.01;87.60;96231.52;1747740;81;21148;-85
2021/01/17 03:37:13;;;;;;;12.90;5.85;;;;;;;-7.29;87.08;96231.33;1756529;81;21124;-85
2021/01/17 03:39:40;;;;;;;8.30;3.50;;;;;;;-7.58;86.92;96237.22;1747581;81;21163;-85
2021/01/17 03:42:08;;;;;;;4.93;2.77;;;;;;;-7.87;86.60;96241.80;1758895;81;21117;-85
2021/01/17 03:44:36;;;;;;;5.87;3.00;;;;;;;-8.15;86.67;96244.88;1758663;81;21159;-85
2021/01/17 03:47:05;;;;;;;6.90;3.77;;;;;;;-8.38;86.85;96251.78;1747609;81;21160;-85
2021/01/17 03:49:32;;;;;;;6.70;4.83;;;;;;;-8.50;87.25;96253.13;1731809;83;21167;-85
2021/01/17 03:51:59;;;;;;;7.40;5.13;;;;;;;-8.57;87.42;96255.58;1691972;83;21510;-85
2021/01/17 03:54:26;;;;;;;10.97;5.37;;;;;;;-8.64;87.61;96257.20;1710385;84;21181;-85
2021/01/17 03:56:53;;;;;;;9.97;5.50;;;;;;;-8.66;87.72;96253.20;1756348;81;21136;-85
2021/01/17 03:59:20;;;;;;;10.13;4.33;;;;;;;-8.70;87.68;96262.53;1750794;81;21524;-85
2021/01/17 04:01:47;;;;;;;9.87;5.27;;;;;;;-8.75;87.73;96266.06;1748462;81;21524;-85
2021/01/17 04:04:14;;;;;;;14.07;6.50;;;;;;;-8.79;87.74;96258.87;1753494;81;21153;-85
2021/01/17 04:06:41;;;;;;;10.77;6.13;;;;;;;-8.82;87.86;96262.58;1761823;81;21160;-85
2021/01/17 04:09:08;;;;;;;11.67;5.93;;;;;;;-8.81;87.98;96268.03;1765996;80;21123;-85
2021/01/17 04:11:35;;;;;;;10.23;5.93;;;;;;;-8.83;87.92;96267.40;1759986;81;21181;-84
2021/01/17 04:14:02;;;;;;;15.37;6.03;;;;;;;-8.90;87.88;96265.16;1746342;81;21146;-85
2021/01/17 04:16:30;;;;;;;13.43;7.30;;;;;;;-8.92;87.90;96266.30;1744137;82;21111;-85
2021/01/17 04:18:57;;;;;;;6.57;4.03;;;;;;;-8.91;88.10;96274.31;1738202;82;21131;-85
2021/01/17 04:21:24;;;;;;;7.10;5.23;;;;;;;-8.91;88.07;96267.89;1731173;82;21131;-85
2021/01/17 04:23:51;;;;;;;4.63;3.37;;;;;;;-8.96;88.03;96272.73;1752833;82;21084;-85
2021/01/17 04:26:19;;;;;;;10.97;5.40;;;;;;;-9.06;88.03;96275.00;1751078;81;21146;-85
2021/01/17 04:28:45;;;;;;;14.00;6.67;;;;;;;-9.13;88.06;96275.83;1750919;81;21162;-85
2021/01/17 04:31:13;;;;;;;12.93;6.70;;;;;;;-9.16;88.11;96280.78;1730375;81;21139;-85
2021/01/17 04:33:40;;;;;;;12.07;7.03;;;;;;;-9.14;88.09;96281.94;1745756;81;21187;-85
2021/01/17 04:36:08;;;;;;;9.00;5.97;;;;;;;-9.15;88.08;96282.39;1756289;81;21119;-85
2021/01/17 04:38:35;;;;;;;13.53;5.87;;;;;;;-9.11;88.04;96277.27;1739941;81;21122;-85
2021/01/17 04:41:04;;;;;;;12.57;5.57;;;;;;;-9.07;88.03;96291.37;1761666;81;21165;-85
2021/01/17 04:43:47;;;;;;;7.33;3.77;;;;;;;-8.99;88.09;96299.55;1749642;81;21123;-85
2021/01/17 04:46:17;;;;;;;5.03;3.20;;;;;;;-8.94;87.97;96297.28;1744201;81;21205;-85
2021/01/17 04:48:47;;;;;;;9.00;4.40;;;;;;;-8.91;87.79;96297.43;1748165;81;21181;-85
2021/01/17 04:51:16;;;;;;;11.23;5.97;;;;;;;-8.88;87.84;96297.09;1736783;82;21155;-85
2021/01/17 04:53:45;;;;;;;10.82;6.05;;;;;;;-8.81;87.82;96296.77;1690976;84;21177;-85
2021/01/17 04:56:17;;;;;;;14.33;5.07;;;;;;;-8.77;87.73;96300.60;1679202;84;21148;-85
2021/01/17 04:58:45;;;;;;;12.13;5.47;;;;;;;-8.73;87.68;96303.15;1683513;84;21546;-85
2021/01/17 05:01:23;;;;;;;14.17;5.57;;;;;;;-8.69;87.61;96304.44;1690420;84;21140;-85
2021/01/17 05:04:01;;;;;;;12.67;5.90;;;;;;;-8.64;87.57;96312.92;1696227;84;21116;-85
2021/01/17 05:06:30;;;;;;;10.13;5.47;;;;;;;-8.59;87.47;96308.88;1697204;84;21147;-85
2021/01/17 05:09:03;;;;;;;;;;;;;;;-8.56;87.36;96315.00;1699307;84;21178;-85
2021/01/17 05:11:38;;;;;;;8.73;4.67;;;;;;;-8.53;87.22;96316.43;1691982;84;20353;-85
2021/01/17 05:14:37;;;;;;;12.03;5.27;;;;;;;-8.55;87.06;96309.38;1698656;84;21159;-85
2021/01/17 05:17:05;;;;;;;9.53;5.07;;;;;;;-8.54;86.94;96313.06;1719032;82;21506;-85
2021/01/17 05:19:38;;;;;;;12.10;6.10;;;;;;;-8.51;86.85;96325.56;1689125;84;21138;-85
2021/01/17 05:22:06;;;;;;;8.83;4.70;;;;;;;-8.49;86.82;96322.34;1668484;85;21164;-86
2021/01/17 05:24:37;;;;;;;15.93;7.00;;;;;;;-8.53;86.54;96327.99;1695258;84;21198;-85
2021/01/17 05:27:05;;;;;;;13.13;6.67;;;;;;;-8.68;86.26;96327.87;1683766;84;21131;-83
2021/01/17 05:29:31;;;;;;;9.20;5.40;;;;;;;-8.76;86.06;96333.03;1696468;83;21225;-83
2021/01/17 05:32:04;;;;;;;8.30;4.73;;;;;;;-8.92;85.75;96333.88;1679784;85;21164;-83
2021/01/17 05:34:33;;;;;;;8.97;4.47;;;;;;;-9.07;85.46;96337.59;1707425;84;21467;-83
2021/01/17 05:37:15;;;;;;;9.60;4.83;;;;;;;-9.24;85.30;96337.29;1703558;84;21142;-83
2021/01/17 05:40:01;;;;;;;10.53;5.53;;;;;;;-9.36;85.22;96347.08;1692231;82;21705;-83
2021/01/17 05:42:36;;;;;;;7.60;4.33;;;;;;;-9.45;85.32;96356.20;1700179;84;21498;-85
2021/01/17 05:45:17;;;;;;;6.20;3.80;;;;;;;-9.55;85.36;96353.02;1704961;83;21142;-85
2021/01/17 05:47:58;;;;;;;6.57;4.43;;;;;;;-9.61;85.44;96351.87;1696776;84;21162;-84
2021/01/17 05:50:29;;;;;;;10.63;4.30;;;;;;;-9.68;85.53;96366.30;1714215;83;21152;-84
2021/01/17 05:53:00;;;;;;;7.80;4.00;;;;;;;-9.75;85.59;96367.40;1705417;84;21189;-84
2021/01/17 05:55:40;;;;;;;12.63;6.23;;;;;;;-9.82;85.63;96371.56;1691617;82;21141;-84
2021/01/17 05:58:27;;;;;;;12.98;6.30;;;;;;;-9.82;85.85;96377.98;1696730;83;21141;-84
2021/01/17 06:01:00;;;;;;;13.27;7.00;;;;;;;-9.72;86.13;96380.38;1690717;83;21148;-84
2021/01/17 06:03:32;;;;;;;11.97;6.33;;;;;;;-9.59;86.25;96383.29;1695408;84;21140;-84
2021/01/17 06:06:05;;;;;;;13.13;6.93;;;;;;;-9.47;86.40;96385.88;1714793;82;21482;-85
2021/01/17 06:08:35;;;;;;;13.27;6.33;;;;;;;-9.38;86.35;96387.50;1716580;82;21106;-85
2021/01/17 06:11:13;;;;;;;12.45;5.83;;;;;;;-9.25;86.43;96391.36;1699667;84;21154;-84
2021/01/17 06:13:43;;;;;;;14.63;6.00;;;;;;;-9.13;86.41;96396.02;1688752;84;21507;-85
2021/01/17 06:16:30;;;;;;;15.33;7.17;;;;;;;-9.10;86.18;96395.69;1689729;84;21108;-84
2021/01/17 06:19:00;;;;;;;15.30;7.17;;;;;;;-9.05;86.15;96397.28;1713342;83;21180;-84
2021/01/17 06:21:31;;;;;;;14.75;7.03;;;;;;;-8.90;86.10;96390.20;1706659;83;21270;-84
2021/01/17 06:24:05;;;;;;;10.47;5.33;;;;;;;-8.79;86.03;96402.72;1720621;83;21121;-85
2021/01/17 06:26:35;;;;;;;10.27;5.77;;;;;;;-8.70;85.93;96400.47;1715561;83;21298;-84
2021/01/17 06:29:07;;;;;;;12.47;6.43;;;;;;;-8.62;85.82;96403.01;1713529;82;21132;-84
2021/01/17 06:31:34;;;;;;;13.67;6.57;;;;;;;-8.68;85.47;96404.95;1711232;83;21176;-85
2021/01/17 06:34:12;;;;;;;14.47;7.80;;;;;;;-8.77;85.06;96412.34;1711949;83;21558;-84
2021/01/17 06:36:43;;;;;;;13.57;6.60;;;;;;;-8.84;84.80;96416.06;1719297;83;21538;-85
2021/01/17 06:39:26;;;;;;;14.57;6.93;;;;;;;-8.78;84.80;96417.17;1672740;84;21127;-84
2021/01/17 06:41:57;;;;;;;17.13;6.90;;;;;;;-8.76;84.71;96431.45;1706218;84;21468;-84
2021/01/17 06:44:32;;;;;;;11.60;5.73;;;;;;;-8.72;84.59;96428.09;1704757;84;21522;-84
2021/01/17 06:47:01;;;;;;;15.03;6.93;;;;;;;-8.72;84.40;96426.81;1707559;84;21138;-84
2021/01/17 06:49:40;;;;;;;14.15;6.55;;;;;;;-8.78;84.23;96434.66;1707655;84;21147;-84
2021/01/17 06:52:08;;;;;;;12.43;6.67;;;;;;;-8.72;84.33;96442.22;1706485;84;21126;-85
2021/01/17 06:54:48;;;;;;;13.03;6.33;;;;;;;-8.63;84.43;96442.52;1708619;84;21553;-84
2021/01/17 06:57:17;;;;;;;14.50;7.37;;;;;;;-8.51;84.36;96446.84;1697037;84;21172;-85
2021/01/17 06:59:50;;;;;;;12.20;6.57;;;;;;;-8.57;83.86;96440.59;1708995;83;21593;-84
2021/01/17 07:02:39;;;;;;;15.53;7.13;;;;;;;-8.60;83.49;96442.19;1709777;84;21150;-85
2021/01/17 07:05:29;;;;;;;13.27;6.40;;;;;;;-8.63;83.17;96446.85;1711650;84;21112;-84
2021/01/17 07:08:27;;;;;;;11.63;6.17;;;;;;;-8.62;82.94;96449.26;1728668;83;21085;-84
2021/01/17 07:11:20;;;;;;;17.53;6.20;;;;;;;-8.70;82.67;96456.51;1709112;84;21157;-85
2021/01/17 07:13:51;;;;;;;17.10;6.57;;;;;;;-8.68;82.57;96453.77;1707932;84;21135;-84
2021/01/17 07:16:34;;;;;;;12.97;6.43;;;;;;;-8.67;82.30;96460.52;1708435;84;21475;-85
2021/01/17 07:19:07;;;;;;;17.43;7.43;;;;;;;-8.66;82.17;96465.97;1710322;84;21577;-84
2021/01/17 07:21:39;;;;;;;19.37;7.37;;;;;;;-8.72;81.95;96471.77;1705282;84;21131;-84
2021/01/17 07:24:10;;;;;;;102.80;28.20;;;;;;;-8.72;81.84;96478.20;1706602;84;21139;-84
2021/01/17 07:26:52;;;;;;;33.10;15.50;;;;;;;-8.64;81.84;96479.94;1711584;84;21143;-84
2021/01/17 07:29:20;;;;;;;22.23;8.67;;;;;;;-8.57;81.89;96484.28;1702905;82;21225;-84
2021/01/17 07:31:48;;;;;;;15.80;8.40;;;;;;;-8.57;81.65;96489.42;1680563;84;21165;-84
2021/01/17 07:34:15;;;;;;;13.70;7.57;;;;;;;-8.52;81.70;96498.72;1708774;84;21189;-84
2021/01/17 07:36:50;;;;;;;18.63;9.80;;;;;;;-8.56;81.22;96498.73;1712133;84;21141;-84
2021/01/17 07:39:23;;;;;;;18.97;9.43;;;;;;;-8.67;80.98;96495.20;1701021;84;21206;-84
2021/01/17 07:41:51;;;;;;;16.70;8.67;;;;;;;-8.67;80.82;96502.91;1690851;84;21502;-84
2021/01/17 07:44:20;;;;;;;19.53;10.97;;;;;;;-8.67;80.90;96508.53;1698412;84;21197;-84
2021/01/17 07:46:49;;;;;;;35.45;19.05;;;;;;;-8.56;81.02;96505.65;1743938;82;21499;-84
2021/01/17 07:49:16;;;;;;;34.27;20.20;;;;;;;-8.44;81.18;96510.30;1751945;81;21136;-84
2021/01/17 07:51:46;;;;;;;34.47;18.03;;;;;;;-8.31;80.82;96511.52;1750909;81;21139;-84
2021/01/17 07:54:27;;;;;;;37.10;19.65;;;;;;;-8.42;80.16;96514.79;1743153;81;21501;-84
2021/01/17 07:56:57;;;;;;;27.40;15.63;;;;;;;-8.51;80.07;96511.89;1729914;82;21527;-85
2021/01/17 07:59:26;;;;;;;;;;;;;;;-8.59;79.94;96517.02;1715864;81;21181;-84
2021/01/17 08:01:54;;;;;;;25.33;13.63;;;;;;;-8.85;79.05;96522.82;1745997;81;20148;-84
2021/01/17 08:04:23;;;;;;;30.67;15.43;;;;;;;-9.30;78.56;96524.00;1737007;82;21536;-85
2021/01/17 08:06:55;;;;;;;30.33;16.43;;;;;;;-9.48;79.12;96528.45;1734028;82;21150;-84
2021/01/17 08:09:45;;;;;;;24.47;12.57;;;;;;;-9.52;79.46;96528.44;1738141;82;21131;-85
2021/01/17 08:12:40;;;;;;;26.10;13.23;;;;;;;-9.55;79.55;96540.30;1746104;82;21161;-86
2021/01/17 08:15:17;;;;;;;27.50;14.23;;;;;;;-9.56;79.74;96535.66;1751665;82;21166;-84
2021/01/17 08:17:45;;;;;;;25.83;14.77;;;;;;;-9.72;79.53;96529.95;1744141;82;21167;-84
2021/01/17 08:20:29;;;;;;;25.33;13.60;;;;;;;-9.74;79.80;96540.84;1745141;82;21495;-85
2021/01/17 08:23:14;;;;;;;27.20;15.07;;;;;;;-9.62;80.06;96546.52;1741844;81;21213;-86
2021/01/17 08:25:54;;;;;;;24.53;12.93;;;;;;;-9.59;79.94;96553.89;1740577;81;21130;-85
2021/01/17 08:28:34;;;;;;;30.87;15.40;;;;;;;-9.63;79.85;96553.41;1749591;81;21143;-85
2021/01/17 08:31:01;;;;;;;24.80;14.60;;;;;;;-9.58;79.76;96553.73;1739564;81;21544;-85
2021/01/17 08:33:28;;;;;;;27.57;13.33;;;;;;;-9.44;79.99;96560.53;1696335;84;21112;-85
2021/01/17 08:35:56;;;;;;;22.97;12.60;;;;;;;-9.30;79.96;96561.22;1700287;84;21476;-85
2021/01/17 08:38:24;;;;;;;25.07;12.17;;;;;;;-9.16;79.89;96563.19;1716160;82;21594;-85
2021/01/17 08:40:55;;;;;;;22.07;11.40;;;;;;;-9.06;79.68;96547.17;1714319;82;21503;-85
2021/01/17 08:43:34;;;;;;;27.70;12.67;;;;;;;-9.02;79.47;96552.31;1702856;84;21178;-85
2021/01/17 08:46:02;;;;;;;24.23;12.20;;;;;;;-8.99;79.46;96556.34;1670229;84;21177;-85
2021/01/17 08:48:31;;;;;;;29.37;13.60;;;;;;;-9.00;79.14;96558.11;1707474;82;21170;-87
2021/01/17 08:51:16;;;;;;;22.10;13.20;;;;;;;-9.11;78.69;96566.59;1680698;84;21162;-85
2021/01/17 08:53:45;;;;;;;25.07;12.40;;;;;;;-9.15;78.71;96572.50;1696704;84;21190;-85
2021/01/17 08:56:19;;;;;;;59.30;22.80;;;;;;;-8.95;79.27;96573.52;1693509;84;21154;-85
2021/01/17 08:58:56;;;;;;;37.67;20.53;;;;;;;-8.75;79.57;96579.97;1695827;84;21124;-85
2021/01/17 09:01:23;;;;;;;43.13;22.60;;;;;;;-8.69;79.19;96572.45;1670646;84;21124;-85
2021/01/17 09:03:58;;;;;;;26.83;13.57;;;;;;;-8.62;79.21;96580.31;1705184;84;21131;-83
2021/01/17 09:06:29;;;;;;;27.23;14.97;;;;;;;-8.45;79.08;96590.92;1714484;82;21208;-84
2021/01/17 09:09:05;;;;;;;32.23;15.17;;;;;;;-8.55;78.62;96596.72;1702546;84;21158;-84
2021/01/17 09:11:38;;;;;;;25.60;15.37;;;;;;;-8.65;77.95;96602.48;1699412;84;21200;-83
2021/01/17 09:14:22;;;;;;;32.90;17.17;;;;;;;-8.86;77.70;96605.50;1703147;84;21154;-83
2021/01/17 09:17:03;;;;;;;35.10;20.33;;;;;;;-8.96;77.71;96607.39;1686369;84;21126;-84
2021/01/17 09:19:35;;;;;;;66.20;27.37;;;;;;;-8.96;78.07;96611.24;1685288;84;21190;-83
2021/01/17 09:22:07;;;;;;;25.10;13.37;;;;;;;-9.02;77.85;96620.36;1683651;84;21261;-84
2021/01/17 09:24:40;;;;;;;19.87;10.70;;;;;;;-9.01;77.92;96627.13;1676463;84;21172;-83
2021/01/17 09:27:10;;;;;;;19.27;9.47;;;;;;;-9.08;77.67;96624.84;1705686;82;21157;-83
2021/01/17 09:29:40;;;;;;;27.07;12.67;;;;;;;-9.17;77.40;96619.34;1660829;85;21539;-83
2021/01/17 09:32:13;;;;;;;26.67;13.57;;;;;;;-9.34;77.21;96622.34;1710200;82;21155;-82
2021/01/17 09:34:44;;;;;;;34.23;16.67;;;;;;;-9.43;77.42;96625.01;1721491;82;21090;-83
2021/01/17 09:37:17;;;;;;;24.67;13.83;;;;;;;-9.43;77.77;96628.41;1672554;84;21125;-83
2021/01/17 09:39:49;;;;;;;24.43;14.63;;;;;;;-9.34;77.63;96630.03;1700273;84;21170;-82
2021/01/17 09:42:19;;;;;;;40.77;21.40;;;;;;;-9.28;77.79;96632.48;1707379;84;21139;-83
2021/01/17 09:44:56;;;;;;;69.13;34.80;;;;;;;-9.18;77.66;96636.99;1695433;84;21604;-82
2021/01/17 09:47:26;;;;;;;31.87;19.03;;;;;;;-9.22;77.67;96633.14;1698973;84;21562;-82
2021/01/17 09:49:53;;;;;;;;;;;;;;;-9.07;77.99;96635.44;1701555;82;21163;-84
2021/01/17 09:52:25;;;;;;;28.40;12.97;;;;;;;-8.85;78.30;96634.08;1697536;84;20432;-84
2021/01/17 09:54:55;;;;;;;26.13;12.93;;;;;;;-8.45;78.86;96630.76;1692480;84;21197;-82
2021/01/17 09:57:26;;;;;;;;;;;;;;;-8.05;79.05;96628.34;1702594;82;21624;-81
2021/01/17 09:59:55;;;;;;;21.07;10.77;;;;;;;-7.84;77.96;96637.18;1698889;82;20209;-82
2021/01/17 10:02:28;;;;;;;20.17;9.93;;;;;;;-8.00;76.96;96644.11;1701838;82;21177;-82
2021/01/17 10:04:55;;;;;;;24.83;13.43;;;;;;;-8.13;76.14;96642.02;1692837;84;21521;-82
2021/01/17 10:07:23;;;;;;;20.13;11.20;;;;;;;-8.19;76.38;96641.36;1706821;83;21165;-82
2021/01/17 10:09:53;;;;;;;21.63;12.67;;;;;;;-8.12;75.87;96644.42;1706817;83;21207;-82
2021/01/17 10:12:24;;;;;;;22.67;12.78;;;;;;;-8.25;75.72;96642.81;1707466;84;21143;-82
2021/01/17 10:14:51;;;;;;;;;;;;;;;-8.16;76.01;96644.92;1690863;84;21377;-83
2021/01/17 10:17:22;;;;;;;27.90;13.47;;;;;;;-7.81;76.78;96652.28;1702155;84;20356;-82
2021/01/17 10:19:51;;;;;;;24.10;13.50;;;;;;;-7.47;76.59;96651.25;1733024;83;21619;-82
2021/01/17 10:22:19;;;;;;;24.43;13.35;;;;;;;-7.45;75.63;96656.27;1727710;83;21134;-82
2021/01/17 10:24:46;;;;;;;25.40;12.43;;;;;;;-7.40;75.95;96655.28;1692490;84;21635;-83
2021/01/17 10:27:16;;;;;;;25.07;12.40;;;;;;;-7.33;75.65;96664.73;1701389;84;21281;-84
2021/01/17 10:29:44;;;;;;;28.15;14.20;;;;;;;-7.49;74.85;96659.63;1690431;84;21180;-84
2021/01/17 10:32:16;;;;;;;23.38;13.03;;;;;;;-7.54;75.15;96664.48;1708494;83;21156;-83
2021/01/17 10:34:49;;;;;;;22.05;11.45;;;;;;;-7.47;75.44;96666.22;1690960;84;21131;-84
2021/01/17 10:37:19;;;;;;;21.60;10.57;;;;;;;-7.17;76.06;96666.49;1715245;83;21162;-85
2021/01/17 10:39:46;;;;;;;26.05;13.75;;;;;;;-6.98;75.33;96662.72;1700613;84;21538;-85
2021/01/17 10:42:25;;;;;;;25.33;12.00;;;;;;;-7.23;74.49;96658.92;1701196;84;21494;-84
2021/01/17 10:45:07;;;;;;;27.43;14.50;;;;;;;-7.21;74.32;96660.84;1703100;84;21212;-85
2021/01/17 10:47:48;;;;;;;27.43;13.57;;;;;;;-7.41;73.95;96666.06;1731614;82;21175;-84
2021/01/17 10:50:22;;;;;;;28.27;14.87;;;;;;;-7.41;74.25;96673.79;1702532;84;21190;-85
2021/01/17 10:53:20;;;;;;;60.43;22.60;;;;;;;-7.41;74.02;96669.92;1703424;84;21154;-85
2021/01/17 10:55:58;;;;;;;30.53;15.87;;;;;;;-7.47;73.98;96670.56;1710531;84;21502;-85
2021/01/17 10:58:34;;;;;;;29.20;13.95;;;;;;;-7.58;73.64;96665.78;1713848;83;21175;-85
2021/01/17 11:01:02;;;;;;;23.30;13.40;;;;;;;-7.61;73.73;96671.23;1725181;83;21134;-84
2021/01/17 11:03:35;;;;;;;28.13;14.27;;;;;;;-7.73;73.60;96668.22;1708837;84;21173;-84
2021/01/17 11:06:14;;;;;;;30.60;17.00;;;;;;;-7.58;74.29;96673.50;1707155;84;21142;-85
2021/01/17 11:08:54;;;;;;;29.30;14.77;;;;;;;-7.37;74.41;96685.36;1707315;84;21178;-85
2021/01/17 11:11:24;;;;;;;28.95;14.28;;;;;;;-7.17;74.18;96679.86;1702877;84;21191;-84
2021/01/17 11:14:02;;;;;;;;;;;;;;;-7.18;73.89;96673.88;1716726;84;21529;-84
2021/01/17 11:16:42;;;;;;;22.70;12.07;;;;;;;-7.17;73.84;96675.99;1715792;83;20337;-85
2021/01/17 11:19:13;;;;;;;24.60;13.33;;;;;;;-7.24;73.29;96678.41;1713474;83;21522;-86
2021/01/17 11:21:42;;;;;;;22.77;12.37;;;;;;;-7.29;73.88;96685.36;1734629;81;21129;-85
2021/01/17 11:24:11;;;;;;;21.12;12.00;;;;;;;-7.08;74.36;96688.66;1733746;81;21244;-86
2021/01/17 11:26:39;;;;;;;27.20;12.75;;;;;;;-6.81;74.64;96677.13;1734991;81;21127;-86
2021/01/17 11:29:15;;;;;;;25.43;12.17;;;;;;;-6.65;74.42;96681.41;1741527;81;21135;-86
2021/01/17 11:31:47;;;;;;;25.43;12.75;;;;;;;-6.54;74.28;96680.23;1743353;81;21188;-85
2021/01/17 11:34:16;;;;;;;20.70;10.40;;;;;;;-6.59;73.49;96684.62;1735341;81;21514;-85
2021/01/17 11:36:44;;;;;;;30.57;14.90;;;;;;;-6.65;73.24;96682.21;1736197;81;21121;-85
2021/01/17 11:39:20;;;;;;;26.05;14.23;;;;;;;-6.95;72.92;96682.98;1736187;81;21157;-85
2021/01/17 11:41:51;;;;;;;27.60;13.07;;;;;;;-7.22;72.13;96681.14;1698839;83;21166;-84
2021/01/17 11:44:21;;;;;;;27.42;13.62;;;;;;;-7.50;72.36;96678.63;1738067;81;21123;-84
2021/01/17 11:46:51;;;;;;;28.80;12.88;;;;;;;-7.57;72.85;96674.62;1740757;81;21130;-85
2021/01/17 11:49:26;;;;;;;23.57;13.10;;;;;;;-7.64;72.59;96678.80;1744677;81;21104;-86